Aeroporto :
LOGIN :

Iscrizione | Disclaimer

   EN    FR    IT 

 










Sommario :    VFR   VFR Marginale   IFR   IFR Intensivo   IFR Molto Intensivo
Visibilità : 
Base nubi : 
>= 8 km
>= 3000ft
5 / 8 km
1000 / 3000 ft
1500m / 5 km
500 / 1000 ft
800 / 1500m
200 / 500 ft
< 800m
< 200 ft
Simboli :   Temporali  Nebbia  Neve Forte  Precipitazioni Forti  Vento > 20 kt
SIGMETs :   Varie  Temporali  Ghiacco  Turbolenza  Onda orograficha  Ceneri Vulcaniche






- Altitudine del aeroporto : 1789 ft
- Codice IATA : PRN


BKPR - Pristina

ULTIMO METAR :
  • 271100Z 33006KT 2000 -SN BR SCT008 BKN030 01/M01 Q1007 BECMG 5000 RMK 17690195

METARs OBSOLETI :
  • 271030Z 35006KT 1000 R17/1200 -SN BR SCT007 BKN030 01/M01 Q1007 BECMG 5000 RMK 17690195
  • 271000Z 34006KT 1000 R17/1500 -SN BR SCT007 BKN030 00/M01 Q1006 BECMG 5000 RMK 17690195
  • 270930Z 36010KT 0700 R17/0650V1200 SHSN SCT007 FEW020TCU BKN030 00/M02 Q1005 BECMG 5000 -SHSN RMK 17290095
  • 270900Z 36013KT 1500 -SHSN BR SCT008 FEW025TCU BKN030 00/M02 Q1005 BECMG 5000 RMK 17290095
  • 270830Z 01017KT 9999 FEW020TCU SCT025 BKN050 01/M02 Q1004 TEMPO 4000 -SNRA RMK 17290095

TAF TAF BKPR
Valido dal 27 a 09 ore il 28 a 06 ore UTC


270855Z 2709/2806 35015KT 9999 SCT012 BKN040
TEMPO 2709/2715 2000 -SHSNRA BR
PROB40
TEMPO 2709/2715 0800 SHSN
BECMG 2718/2721 24008KT



MetMap, La meteo Aeronautica in un colpo d'occhio ! - Copyright ORBIFLY Dicembre 2007 - Disclaimer

ORBIFLY MET'MAP TEAM :

Programmazione e sviluppo : Alexandra Zaïnal
Concezione : Baudouin d'Aumeries
Aiuto per la programmazione : Marc-Olivier Méhu
Supporto tecnico e logistico : Manuel Goepfert
Aiuto per la traduzione : Arnaldo La Scala

Contatto : metmap@orbifly.com




FONTI E CREDITI :

   NOAA